Platteville, WI

9:03 AM CDT on July 30, 2016 (GMT -0500)
Platteville Municipal | | Change Station

Elev 1024 ft 42.69 °N, 90.44 °W | Updated 8 minutes ago

Mostly Cloudy
Mostly Cloudy
68 °F
Feels Like 68 °F
N
8
Wind Variable Wind from ENE

Today
High -- | Low -- °F
--% Chance of Precip.
Yesterday
High -- | Low -- °F
Precip. -- in
Pressure 30.03 in
Visibility 10.0 miles
Clouds Scattered Clouds 2600 ft
Mostly Cloudy 6000 ft
Dew Point 66 °F
Humidity 92%
Rainfall 0.00 in
Snow Depth Not available.
5:51 AM 8:23 PM
Waning Crescent, 13% visible
METAR KPVB 301355Z AUTO 07007KT 10SM SCT026 BKN060 20/19 A3003 RMK AO1 T02030190
Pressure 30.03 in
Visibility 10.0 miles
Clouds Scattered Clouds 2600 ft
Mostly Cloudy 6000 ft
Dew Point 66 °F
Humidity 92%
Rainfall 0.00 in
Snow Depth Not available.
5:51 AM 8:23 PM
Waning Crescent, 13% visible
METAR KPVB 301355Z AUTO 07007KT 10SM SCT026 BKN060 20/19 A3003 RMK AO1 T02030190

10-Day Weather Forecast

Almanac

Astronomy

Jul. 30, 2016 Rise Set
Actual Time
Civil Twilight
Nautical Twilight
Astronomical Twilight
Moon
Length of Visible Light
Length of Day
Tomorrow will be .
, % of the Moon is Illuminated

Today's Extremes

State Highs State Lows

Community

WunderPhotos

Upload Photos

1,928,564 photos uploaded!

WunderBlog® & News

Nearby

Air Quality

  Air Quality AQ Index Pollutant
Not available.

Snow Depth

Station Depth Elevation

Earthquake Activity

City Distance Mag. Time & Date
Minimum magnitude displayed is 2.5.

Coastal Water Temperatures

Place Temperature

Stations

Nearby Weather Stations

Station Location Temp. Windchill Dew Point Humidity Wind Precip. Elev Updated Type
                   

Watches & Warnings

There are currently no watches in effect.